createdAt,value
2022-10-12T00:00:26.985Z,3.30
2022-10-12T00:02:53.674Z,3.30
2022-10-12T00:05:20.377Z,3.27
2022-10-12T00:07:47.207Z,3.03
2022-10-12T00:10:13.911Z,3.40
2022-10-12T00:12:40.708Z,2.90
2022-10-12T00:15:08.038Z,3.00
2022-10-12T00:17:34.891Z,3.17
2022-10-12T00:20:03.908Z,2.87
2022-10-12T00:22:31.077Z,2.97
2022-10-12T00:24:57.794Z,3.03
2022-10-12T00:27:24.756Z,2.87
2022-10-12T00:29:51.445Z,2.70
2022-10-12T00:32:18.776Z,3.10
2022-10-12T00:34:45.925Z,2.37
2022-10-12T00:37:12.687Z,3.40
2022-10-12T00:39:39.378Z,2.40
2022-10-12T00:42:06.149Z,2.63
2022-10-12T00:44:50.941Z,2.50
2022-10-12T00:47:53.957Z,2.53
2022-10-12T00:50:34.578Z,2.30
2022-10-12T00:53:15.124Z,2.70
2022-10-12T00:55:53.977Z,2.20
2022-10-12T00:58:24.836Z,2.80
2022-10-12T01:00:51.926Z,2.67
2022-10-12T01:03:22.956Z,2.40
2022-10-12T01:05:49.874Z,2.90
2022-10-12T01:08:16.811Z,2.90
2022-10-12T01:10:43.569Z,3.47
2022-10-12T01:13:10.420Z,2.67
2022-10-12T01:15:45.455Z,2.60
2022-10-12T01:18:31.091Z,2.53
2022-10-12T01:21:18.465Z,2.90
2022-10-12T01:24:20.045Z,4.07
2022-10-12T01:27:27.645Z,2.73
2022-10-12T01:30:13.461Z,2.70
2022-10-12T01:33:22.428Z,3.00
2022-10-12T01:36:14.961Z,3.30
2022-10-12T01:39:10.644Z,2.60
2022-10-12T01:41:46.776Z,4.00
2022-10-12T01:44:25.572Z,3.03
2022-10-12T01:46:57.152Z,3.20
2022-10-12T01:49:32.672Z,3.07
2022-10-12T01:52:27.090Z,3.00
2022-10-12T01:55:26.795Z,3.07
2022-10-12T01:58:20.646Z,2.70
2022-10-12T02:01:19.882Z,2.80
2022-10-12T02:04:02.701Z,3.57
2022-10-12T02:06:40.661Z,2.63
2022-10-12T02:09:32.707Z,3.13
2022-10-12T02:12:09.907Z,2.73
2022-10-12T02:14:52.369Z,2.70
2022-10-12T02:17:23.332Z,3.10
2022-10-12T02:20:00.037Z,2.77
2022-10-12T02:22:39.592Z,2.80
2022-10-12T02:25:11.788Z,2.50
2022-10-12T02:27:44.656Z,3.20
2022-10-12T02:30:12.565Z,3.60
2022-10-12T02:32:56.363Z,2.73
2022-10-12T02:35:41.532Z,2.23
2022-10-12T02:38:35.949Z,2.27
2022-10-12T02:41:16.676Z,2.50
2022-10-12T02:43:59.042Z,2.67
2022-10-12T02:46:28.974Z,3.13
2022-10-12T02:48:59.427Z,2.50
2022-10-12T02:51:29.826Z,2.27
2022-10-12T02:53:57.076Z,2.20
2022-10-12T02:56:24.057Z,2.87
2022-10-12T02:58:50.852Z,2.33
2022-10-12T03:01:18.087Z,2.60
2022-10-12T03:03:47.037Z,2.60
2022-10-12T03:06:13.768Z,2.57
2022-10-12T03:08:40.507Z,2.70
2022-10-12T03:11:12.904Z,2.27
2022-10-12T03:13:39.707Z,2.20
2022-10-12T03:16:11.488Z,2.57
2022-10-12T03:18:39.729Z,2.77
2022-10-12T03:21:06.844Z,2.60
2022-10-12T03:23:33.587Z,2.47
2022-10-12T03:26:00.303Z,2.47
2022-10-12T03:28:27.531Z,3.10
2022-10-12T03:30:54.474Z,2.27
2022-10-12T03:33:21.520Z,2.30
2022-10-12T03:35:48.620Z,2.03
2022-10-12T03:38:16.947Z,2.63
2022-10-12T03:40:44.308Z,2.57
2022-10-12T03:43:11.100Z,2.63
2022-10-12T03:45:38.344Z,2.60
2022-10-12T03:48:07.354Z,3.03
2022-10-12T03:50:35.969Z,3.10
2022-10-12T03:53:07.099Z,3.33
2022-10-12T03:55:34.314Z,2.67
2022-10-12T03:58:01.134Z,2.97
2022-10-12T04:00:28.402Z,2.70
2022-10-12T04:02:55.568Z,2.83
2022-10-12T04:05:22.934Z,2.37
2022-10-12T04:07:50.120Z,2.73
2022-10-12T04:10:17.200Z,2.37
2022-10-12T04:12:44.822Z,2.40
2022-10-12T04:15:11.753Z,2.43
2022-10-12T04:17:39.045Z,2.60
2022-10-12T04:20:06.805Z,2.70
2022-10-12T04:22:33.790Z,2.83
2022-10-12T04:25:00.453Z,3.17
2022-10-12T04:27:27.120Z,2.30
2022-10-12T04:29:55.034Z,2.33
2022-10-12T04:32:21.824Z,2.60
2022-10-12T04:34:48.631Z,2.13
2022-10-12T04:37:15.301Z,2.63
2022-10-12T04:39:45.352Z,2.57
2022-10-12T04:42:12.056Z,2.40
2022-10-12T04:44:38.724Z,2.30
2022-10-12T04:47:05.863Z,2.53
2022-10-12T04:49:32.664Z,2.63
2022-10-12T04:51:59.341Z,2.53
2022-10-12T04:54:26.014Z,2.60
2022-10-12T04:56:52.706Z,2.60
2022-10-12T04:59:19.543Z,2.40
2022-10-12T05:01:48.363Z,2.63
2022-10-12T05:04:17.199Z,2.87
2022-10-12T05:06:43.895Z,2.63
2022-10-12T05:09:14.468Z,2.73
2022-10-12T05:11:43.637Z,2.70
2022-10-12T05:14:10.420Z,2.83
2022-10-12T05:16:37.118Z,2.47
2022-10-12T05:19:03.951Z,2.67
2022-10-12T05:21:30.719Z,3.00
2022-10-12T05:23:57.531Z,2.73
2022-10-12T05:26:24.384Z,2.80
2022-10-12T05:28:51.273Z,2.37
2022-10-12T05:31:18.049Z,2.30
2022-10-12T05:33:45.836Z,2.53
2022-10-12T05:36:12.539Z,2.73
2022-10-12T05:38:39.225Z,2.33
2022-10-12T05:41:06.278Z,3.37
2022-10-12T05:43:33.376Z,3.00
2022-10-12T05:46:00.379Z,2.90
2022-10-12T05:48:27.527Z,3.40
2022-10-12T05:50:55.063Z,2.77
2022-10-12T05:53:24.096Z,3.67
2022-10-12T05:55:59.684Z,2.90
2022-10-12T05:58:28.968Z,2.80
2022-10-12T06:01:03.700Z,2.43
2022-10-12T06:03:34.707Z,2.57
2022-10-12T06:06:03.530Z,2.53
2022-10-12T06:08:31.492Z,2.57
2022-10-12T06:10:58.303Z,2.70
2022-10-12T06:13:25.935Z,2.80
2022-10-12T06:15:52.821Z,2.60
2022-10-12T06:18:20.580Z,3.03
2022-10-12T06:21:08.743Z,2.47
2022-10-12T06:23:40.700Z,2.70
2022-10-12T06:26:07.406Z,2.30
2022-10-12T06:28:34.203Z,2.73
2022-10-12T06:31:01.360Z,2.50
2022-10-12T06:33:30.073Z,3.33
2022-10-12T06:35:57.175Z,3.33
2022-10-12T06:38:24.410Z,2.57
2022-10-12T06:40:53.197Z,3.03
2022-10-12T06:43:22.964Z,2.77
2022-10-12T06:45:50.394Z,3.47
2022-10-12T06:48:18.802Z,2.30
2022-10-12T06:50:48.882Z,3.10
2022-10-12T06:53:16.958Z,2.80
2022-10-12T06:55:43.861Z,2.67
2022-10-12T06:58:14.680Z,3.20
2022-10-12T07:00:45.881Z,3.20
2022-10-12T07:03:21.214Z,2.53
2022-10-12T07:05:47.986Z,2.90
2022-10-12T07:08:14.669Z,2.80
2022-10-12T07:10:41.328Z,2.90
2022-10-12T07:13:07.996Z,2.60
2022-10-12T07:15:36.773Z,3.13
2022-10-12T07:18:03.751Z,2.37
2022-10-12T07:20:30.417Z,3.00
2022-10-12T07:22:57.075Z,2.43
2022-10-12T07:25:23.781Z,2.87
2022-10-12T07:27:50.485Z,2.87
2022-10-12T07:30:17.338Z,2.87
2022-10-12T07:32:46.029Z,2.70
2022-10-12T07:35:12.788Z,3.00
2022-10-12T07:37:39.712Z,3.23
2022-10-12T07:40:07.808Z,3.40
2022-10-12T07:42:34.563Z,2.97
2022-10-12T07:45:01.308Z,2.60
2022-10-12T07:47:28.007Z,2.43
2022-10-12T07:49:54.728Z,3.27
2022-10-12T07:52:21.400Z,2.77
2022-10-12T07:54:48.168Z,2.47
2022-10-12T07:57:14.894Z,3.10
2022-10-12T07:59:41.565Z,2.50
2022-10-12T08:02:11.898Z,3.07
2022-10-12T08:04:38.623Z,2.80
2022-10-12T08:07:05.355Z,2.70
2022-10-12T08:09:34.170Z,3.37
2022-10-12T08:12:03.531Z,3.07
2022-10-12T08:14:30.421Z,3.43
2022-10-12T08:16:58.790Z,4.00
2022-10-12T08:19:25.572Z,3.77
2022-10-12T08:21:53.050Z,3.53
2022-10-12T08:24:19.952Z,4.73
2022-10-12T08:26:46.658Z,4.20
2022-10-12T08:29:16.920Z,4.37
2022-10-12T08:31:43.625Z,4.40
2022-10-12T08:34:10.418Z,4.30
2022-10-12T08:36:37.596Z,4.60
2022-10-12T08:39:06.845Z,4.93
2022-10-12T08:41:56.841Z,4.40
2022-10-12T08:44:35.495Z,4.70
2022-10-12T08:47:16.822Z,5.10
2022-10-12T08:49:49.894Z,4.75
2022-10-12T08:52:28.987Z,3.60
2022-10-12T08:55:05.471Z,3.60
2022-10-12T08:57:32.657Z,3.45
2022-10-12T08:59:59.739Z,3.35
2022-10-12T09:02:53.236Z,3.58
2022-10-12T09:06:04.720Z,3.25
2022-10-12T09:08:44.663Z,3.05
2022-10-12T09:11:36.997Z,3.50
2022-10-12T09:14:30.698Z,3.38
2022-10-12T09:17:01.423Z,2.80
2022-10-12T09:19:53.082Z,2.50
2022-10-12T09:22:20.396Z,3.15
2022-10-12T09:24:49.041Z,3.03
2022-10-12T09:27:19.384Z,2.95
2022-10-12T09:29:50.788Z,2.20
2022-10-12T09:32:43.568Z,2.97
2022-10-12T09:35:23.544Z,2.83
2022-10-12T09:37:54.041Z,2.65
2022-10-12T09:40:27.374Z,2.47
2022-10-12T09:42:55.873Z,2.55
2022-10-12T09:45:23.080Z,2.42
2022-10-12T09:48:22.111Z,2.53
2022-10-12T09:50:57.875Z,2.33
2022-10-12T09:53:35.066Z,2.67
2022-10-12T09:56:14.619Z,2.45
2022-10-12T09:58:53.612Z,2.10
2022-10-12T10:01:27.680Z,2.22
2022-10-12T10:04:12.065Z,2.33
2022-10-12T10:06:45.845Z,1.90
2022-10-12T10:09:32.512Z,2.60
2022-10-12T10:12:25.539Z,1.73
2022-10-12T10:14:59.071Z,1.80
2022-10-12T10:17:33.591Z,2.28
2022-10-12T10:20:08.255Z,2.28
2022-10-12T10:22:35.071Z,1.75
2022-10-12T10:25:02.498Z,2.10
2022-10-12T10:28:11.440Z,2.15
2022-10-12T10:30:41.337Z,2.78
2022-10-12T10:33:17.979Z,2.95
2022-10-12T10:36:27.420Z,2.70
2022-10-12T10:39:05.272Z,2.17
2022-10-12T10:41:36.821Z,2.08
2022-10-12T10:44:06.202Z,2.10
2022-10-12T10:46:37.488Z,1.95
2022-10-12T10:49:43.222Z,2.10
2022-10-12T10:52:35.135Z,2.53
2022-10-12T10:55:55.506Z,2.25
2022-10-12T10:58:46.357Z,1.90
2022-10-12T11:01:50.382Z,2.10
2022-10-12T11:04:46.373Z,2.38
2022-10-12T11:07:29.756Z,2.38
2022-10-12T11:10:09.657Z,2.00
2022-10-12T11:12:45.826Z,2.63
2022-10-12T11:15:29.350Z,2.80
2022-10-12T11:18:27.309Z,2.28
2022-10-12T11:21:21.088Z,2.40
2022-10-12T11:24:31.969Z,2.28
2022-10-12T11:27:20.127Z,2.47
2022-10-12T11:30:02.786Z,2.08
2022-10-12T11:32:50.590Z,2.78
2022-10-12T11:35:36.924Z,2.80
2022-10-12T11:38:30.403Z,2.22
2022-10-12T11:41:34.416Z,3.20
2022-10-12T11:44:44.468Z,2.03
2022-10-12T11:47:39.320Z,2.13
2022-10-12T11:50:23.652Z,1.92
2022-10-12T11:52:54.624Z,2.65
2022-10-12T11:55:38.227Z,3.28
2022-10-12T11:58:18.991Z,2.40
2022-10-12T12:01:29.541Z,2.40
2022-10-12T12:04:41.011Z,3.30
2022-10-12T12:07:37.921Z,3.03
2022-10-12T12:10:27.545Z,3.25
2022-10-12T12:13:22.912Z,3.40
2022-10-12T12:15:49.697Z,3.58
2022-10-12T12:18:26.469Z,3.75
2022-10-12T12:21:06.420Z,2.92
2022-10-12T12:23:52.952Z,2.60
2022-10-12T12:26:29.522Z,2.97
2022-10-12T12:29:18.220Z,3.35
2022-10-12T12:32:01.626Z,3.45
2022-10-12T12:34:29.630Z,3.33
2022-10-12T12:36:58.407Z,3.28
2022-10-12T12:39:31.532Z,3.55
2022-10-12T12:42:08.934Z,3.85
2022-10-12T12:44:51.991Z,4.18
2022-10-12T12:47:51.480Z,4.40
2022-10-12T12:50:37.375Z,4.10
2022-10-12T12:53:22.437Z,4.72
2022-10-12T12:56:15.171Z,4.15
2022-10-12T12:58:51.512Z,4.32
2022-10-12T13:01:44.886Z,4.53
2022-10-12T13:04:39.369Z,4.60
2022-10-12T13:08:03.133Z,4.40
2022-10-12T13:10:58.853Z,5.03
2022-10-12T13:13:59.705Z,5.82
2022-10-12T13:19:54.232Z,5.53
2022-10-12T13:22:34.870Z,6.30
2022-10-12T13:25:12.856Z,5.32
2022-10-12T13:27:45.508Z,5.93
2022-10-12T13:30:55.457Z,6.20
2022-10-12T13:33:44.984Z,5.93
2022-10-12T13:36:25.230Z,6.65
2022-10-12T13:38:57.902Z,6.20
2022-10-12T13:41:46.329Z,5.72
2022-10-12T13:44:36.790Z,5.95
2022-10-12T13:47:24.369Z,6.55
2022-10-12T13:50:10.498Z,6.60
2022-10-12T13:52:38.813Z,5.68
2022-10-12T13:55:26.087Z,5.85
2022-10-12T13:57:53.796Z,6.57
2022-10-12T14:00:25.611Z,6.35
2022-10-12T14:03:03.611Z,5.95
2022-10-12T14:05:33.526Z,6.65
2022-10-12T14:08:14.060Z,6.78
2022-10-12T14:10:44.414Z,6.88
2022-10-12T14:13:20.339Z,5.20
2022-10-12T14:15:47.336Z,5.93
2022-10-12T14:18:40.239Z,5.50
2022-10-12T14:21:33.254Z,5.03
2022-10-12T14:24:09.769Z,4.50
2022-10-12T14:26:44.524Z,12.02
2022-10-12T14:29:41.125Z,8.18
2022-10-12T14:32:41.537Z,9.07
2022-10-12T14:35:30.533Z,6.63
2022-10-12T14:37:57.587Z,7.40
2022-10-12T14:40:39.425Z,6.93
2022-10-12T14:43:34.679Z,5.57
2022-10-12T14:46:02.428Z,5.28
2022-10-12T14:48:32.641Z,3.83
2022-10-12T14:50:59.503Z,3.30
2022-10-12T14:53:29.453Z,3.17
2022-10-12T14:55:56.145Z,3.00
2022-10-12T14:58:22.919Z,3.58
2022-10-12T15:00:49.775Z,4.22
2022-10-12T15:03:19.947Z,2.78
2022-10-12T15:05:46.939Z,2.70
2022-10-12T15:08:15.003Z,2.60
2022-10-12T15:10:41.876Z,2.83
2022-10-12T15:13:13.980Z,2.85
2022-10-12T15:15:46.573Z,2.30
2022-10-12T15:18:15.862Z,2.70
2022-10-12T15:20:46.915Z,2.25
2022-10-12T15:23:16.151Z,3.05
2022-10-12T15:25:54.116Z,2.47
2022-10-12T15:28:22.775Z,3.42
2022-10-12T15:33:40.489Z,2.67
2022-10-12T15:36:07.694Z,3.05
2022-10-12T15:38:34.644Z,2.55
2022-10-12T15:41:01.873Z,3.35
2022-10-12T15:43:32.421Z,2.67
2022-10-12T15:46:00.829Z,3.45
2022-10-12T15:48:28.293Z,3.55
2022-10-12T15:50:56.654Z,2.90
2022-10-12T15:53:28.488Z,3.00
2022-10-12T15:55:55.997Z,2.90
2022-10-12T15:58:23.102Z,3.10
2022-10-12T16:00:50.347Z,2.40
2022-10-12T16:03:25.559Z,2.92
2022-10-12T16:05:53.403Z,3.00
2022-10-12T16:08:20.343Z,2.80
2022-10-12T16:10:47.903Z,3.03
2022-10-12T16:13:17.413Z,2.75
2022-10-12T16:15:44.567Z,2.15
2022-10-12T16:18:12.074Z,3.25
2022-10-12T16:20:41.257Z,2.38
2022-10-12T16:23:16.634Z,2.75
2022-10-12T16:25:43.498Z,2.85
2022-10-12T16:28:12.046Z,3.15
2022-10-12T16:30:42.629Z,2.50
2022-10-12T16:33:09.583Z,2.30
2022-10-12T16:35:40.350Z,2.30
2022-10-12T16:38:09.209Z,2.67
2022-10-12T16:40:39.064Z,3.22
2022-10-12T16:43:05.850Z,3.30
2022-10-12T16:45:32.626Z,3.05
2022-10-12T16:47:59.355Z,2.97
2022-10-12T16:50:26.533Z,2.17
2022-10-12T16:52:53.255Z,2.67
2022-10-12T16:55:20.451Z,2.50
2022-10-12T16:57:47.385Z,2.88
2022-10-12T17:00:19.054Z,2.75
2022-10-12T17:02:47.735Z,4.25
2022-10-12T17:05:14.809Z,3.55
2022-10-12T17:07:42.595Z,3.92
2022-10-12T17:10:09.831Z,3.88
2022-10-12T17:12:36.716Z,3.42
2022-10-12T17:15:04.802Z,3.78
2022-10-12T17:17:31.612Z,3.38
2022-10-12T17:19:58.343Z,3.65
2022-10-12T17:22:25.144Z,3.90
2022-10-12T17:24:51.881Z,3.70
2022-10-12T17:27:18.708Z,3.38
2022-10-12T17:29:45.992Z,3.17
2022-10-12T17:32:12.905Z,3.35
2022-10-12T17:34:43.727Z,3.00
2022-10-12T17:37:12.733Z,2.80
2022-10-12T17:39:46.083Z,4.00
2022-10-12T17:42:13.463Z,3.00
2022-10-12T17:44:40.677Z,3.20
2022-10-12T17:47:07.475Z,3.10
2022-10-12T17:49:34.236Z,3.67
2022-10-12T17:52:05.471Z,4.35
2022-10-12T17:54:32.810Z,4.65
2022-10-12T17:56:59.685Z,4.60
2022-10-12T17:59:26.995Z,3.55
2022-10-12T18:01:54.237Z,2.97
2022-10-12T18:04:21.729Z,3.63
2022-10-12T18:06:48.670Z,2.97
2022-10-12T18:09:15.454Z,3.38
2022-10-12T18:11:44.253Z,3.72
2022-10-12T18:14:12.962Z,4.30
2022-10-12T18:16:40.346Z,4.43
2022-10-12T18:19:10.201Z,5.10
2022-10-12T18:21:38.369Z,4.35
2022-10-12T18:24:16.172Z,3.90
2022-10-12T18:26:47.619Z,3.80
2022-10-12T18:29:14.734Z,3.95
2022-10-12T18:31:41.734Z,4.40
2022-10-12T18:34:08.997Z,4.90
2022-10-12T18:36:36.465Z,4.20
2022-10-12T18:39:04.486Z,4.07
2022-10-12T18:41:31.896Z,3.95
2022-10-12T18:44:02.299Z,4.38
2022-10-12T18:46:32.629Z,4.28
2022-10-12T18:49:04.954Z,4.20
2022-10-12T18:51:34.985Z,4.18
2022-10-12T18:54:03.459Z,4.25
2022-10-12T18:56:34.764Z,4.15
2022-10-12T18:59:03.204Z,5.25
2022-10-12T19:01:31.641Z,3.80
2022-10-12T19:04:00.665Z,4.00
2022-10-12T19:06:36.164Z,4.30
2022-10-12T19:09:05.500Z,4.40
2022-10-12T19:11:39.630Z,4.80
2022-10-12T19:14:13.594Z,4.72
2022-10-12T19:16:43.466Z,5.05
2022-10-12T19:19:21.479Z,4.57
2022-10-12T19:21:50.600Z,4.30
2022-10-12T19:24:18.947Z,5.50
2022-10-12T19:26:45.879Z,5.47
2022-10-12T19:29:13.940Z,4.60
2022-10-12T19:31:46.668Z,4.85
2022-10-12T19:34:19.535Z,4.18
2022-10-12T19:36:48.423Z,3.80
2022-10-12T19:39:19.583Z,3.60
2022-10-12T19:41:46.934Z,4.50
2022-10-12T19:44:15.514Z,3.97
2022-10-12T19:46:43.510Z,3.85
2022-10-12T19:49:13.728Z,3.70
2022-10-12T19:51:42.679Z,4.03
2022-10-12T19:54:16.835Z,3.63
2022-10-12T19:56:43.576Z,3.60
2022-10-12T19:59:10.501Z,4.10
2022-10-12T20:01:40.018Z,4.28
2022-10-12T20:04:10.037Z,3.83
2022-10-12T20:06:37.677Z,4.32
2022-10-12T20:09:06.541Z,4.28
2022-10-12T20:11:40.033Z,4.70
2022-10-12T20:14:10.472Z,4.03
2022-10-12T20:16:37.864Z,4.85
2022-10-12T20:19:07.180Z,4.65
2022-10-12T20:21:36.497Z,5.20
2022-10-12T20:24:03.515Z,4.40
2022-10-12T20:26:32.805Z,4.97
2022-10-12T20:29:00.873Z,3.65
2022-10-12T20:31:29.279Z,5.05
2022-10-12T20:33:57.758Z,4.75
2022-10-12T20:36:29.317Z,5.30
2022-10-12T20:38:59.677Z,4.90
2022-10-12T20:41:28.211Z,4.10
2022-10-12T20:43:57.844Z,4.50
2022-10-12T20:46:28.008Z,4.60
2022-10-12T20:49:01.377Z,4.95
2022-10-12T20:51:42.675Z,6.10
2022-10-12T20:54:18.622Z,6.50
2022-10-12T20:56:47.812Z,7.03
2022-10-12T20:59:14.605Z,7.20
2022-10-12T21:01:45.216Z,6.78
2022-10-12T21:04:11.928Z,7.20
2022-10-12T21:06:38.665Z,6.78
2022-10-12T21:09:06.368Z,5.47
2022-10-12T21:11:33.376Z,5.45
2022-10-12T21:14:00.375Z,5.60
2022-10-12T21:16:27.296Z,5.40
2022-10-12T21:19:02.288Z,5.60
2022-10-12T21:21:29.027Z,5.32
2022-10-12T21:24:00.492Z,4.93
2022-10-12T21:26:48.513Z,5.78
2022-10-12T21:29:15.220Z,5.00
2022-10-12T21:31:41.960Z,4.55
2022-10-12T21:34:29.367Z,5.43
2022-10-12T21:36:57.455Z,4.57
2022-10-12T21:39:24.271Z,4.78
2022-10-12T21:41:50.966Z,5.13
2022-10-12T21:44:17.736Z,5.63
2022-10-12T21:46:44.441Z,5.10
2022-10-12T21:49:11.375Z,4.55
2022-10-12T21:51:38.378Z,4.85
2022-10-12T21:54:06.589Z,4.68
2022-10-12T21:56:36.080Z,4.90
2022-10-12T21:59:05.947Z,4.82
2022-10-12T22:01:40.304Z,4.80
2022-10-12T22:04:15.276Z,4.45
2022-10-12T22:06:43.514Z,4.60
2022-10-12T22:09:16.512Z,5.18
2022-10-12T22:11:43.964Z,4.25
2022-10-12T22:14:16.141Z,5.25
2022-10-12T22:16:43.324Z,4.70
2022-10-12T22:19:15.125Z,4.50
2022-10-12T22:21:42.144Z,5.20
2022-10-12T22:24:08.979Z,7.55
2022-10-12T22:26:36.160Z,4.70
2022-10-12T22:29:07.317Z,5.07
2022-10-12T22:31:35.008Z,5.30
2022-10-12T22:34:01.707Z,5.05
2022-10-12T22:36:28.862Z,5.93
2022-10-12T22:38:57.469Z,5.22
2022-10-12T22:41:25.053Z,5.18
2022-10-12T22:43:56.171Z,5.63
2022-10-12T22:46:25.800Z,5.40
2022-10-12T22:48:54.426Z,5.65
2022-10-12T22:51:38.925Z,6.20
2022-10-12T22:54:07.921Z,5.10
2022-10-12T22:56:34.785Z,7.30
2022-10-12T22:59:06.927Z,5.32
2022-10-12T23:01:35.622Z,5.90
2022-10-12T23:04:03.176Z,5.20
2022-10-12T23:06:31.233Z,5.95
2022-10-12T23:08:58.175Z,5.75
2022-10-12T23:11:28.524Z,7.78
2022-10-12T23:13:58.212Z,5.07
2022-10-12T23:16:33.933Z,5.88
2022-10-12T23:19:04.113Z,5.70
2022-10-12T23:21:33.967Z,6.80
2022-10-12T23:24:04.746Z,6.10
2022-10-12T23:26:31.944Z,5.88
2022-10-12T23:28:58.746Z,7.38
2022-10-12T23:31:30.762Z,6.15
2022-10-12T23:34:04.717Z,5.90
2022-10-12T23:36:32.196Z,6.22
2022-10-12T23:39:04.957Z,5.75
2022-10-12T23:41:31.980Z,5.93
2022-10-12T23:43:58.823Z,5.30
2022-10-12T23:46:26.224Z,5.93
2022-10-12T23:48:52.908Z,5.70
2022-10-12T23:51:19.705Z,6.13
2022-10-12T23:53:46.488Z,5.68
2022-10-12T23:56:13.400Z,5.75
2022-10-12T23:58:40.617Z,5.45
